createdAt,value
2023-02-23T00:02:13.163Z,0.04
2023-02-23T00:07:25.096Z,0.03
2023-02-23T00:17:06.138Z,0.04
2023-02-23T00:43:37.412Z,0.05
2023-02-23T01:08:16.892Z,0.04
2023-02-23T01:21:10.804Z,0.03
2023-02-23T01:23:40.732Z,0.04
2023-02-23T01:33:25.128Z,0.05
2023-02-23T01:35:47.150Z,0.04
2023-02-23T02:15:04.731Z,0.05
2023-02-23T02:19:56.045Z,0.04
2023-02-23T02:24:53.582Z,0.03
2023-02-23T02:27:32.534Z,0.04
2023-02-23T02:34:04.665Z,0.03
2023-02-23T02:36:49.658Z,0.04
2023-02-23T02:39:20.322Z,0.03
2023-02-23T02:43:39.568Z,0.04
2023-02-23T02:49:07.669Z,0.03
2023-02-23T02:59:20.027Z,0.04
2023-02-23T03:01:49.370Z,0.03
2023-02-23T03:11:29.788Z,0.05
2023-02-23T03:13:51.197Z,0.04
2023-02-23T03:15:58.575Z,0.05
2023-02-23T03:21:35.495Z,0.04
2023-02-23T03:26:16.280Z,0.03
2023-02-23T03:28:15.692Z,0.04
2023-02-23T03:40:55.141Z,0.06
2023-02-23T03:43:34.815Z,0.05
2023-02-23T03:46:00.901Z,0.04
2023-02-23T03:52:55.757Z,0.05
2023-02-23T04:02:40.908Z,0.04
2023-02-23T04:07:42.606Z,0.05
2023-02-23T04:15:34.669Z,0.04
2023-02-23T04:18:04.838Z,0.05
2023-02-23T04:20:20.798Z,0.04
2023-02-23T04:22:22.676Z,0.05
2023-02-23T04:32:18.911Z,0.04
2023-02-23T04:35:14.998Z,0.05
2023-02-23T04:44:39.698Z,0.04
2023-02-23T04:47:27.979Z,0.05
2023-02-23T04:50:02.370Z,0.04
2023-02-23T04:57:23.569Z,0.05
2023-02-23T05:00:04.096Z,0.04
2023-02-23T05:02:30.544Z,0.05
2023-02-23T05:12:00.414Z,0.06
2023-02-23T05:16:23.158Z,0.05
2023-02-23T05:19:15.831Z,0.06
2023-02-23T05:43:28.813Z,0.07
2023-02-23T05:45:51.720Z,0.08
2023-02-23T05:48:00.524Z,0.09
2023-02-23T05:50:57.320Z,0.11
2023-02-23T05:53:40.367Z,0.17
2023-02-23T05:56:09.324Z,0.25
2023-02-23T05:58:24.241Z,0.39
2023-02-23T06:00:25.284Z,0.57
2023-02-23T06:03:14.543Z,1.03
2023-02-23T06:05:49.655Z,1.85
2023-02-23T06:08:10.233Z,2.59
2023-02-23T06:10:17.355Z,3.73
2023-02-23T06:13:12.630Z,4.8
2023-02-23T06:15:53.757Z,7.3
2023-02-23T06:18:21.025Z,9.27
2023-02-23T06:20:34.238Z,12.57
2023-02-23T06:22:33.395Z,15.52
2023-02-23T06:25:20.957Z,21.19
2023-02-23T06:27:54.428Z,22.1
2023-02-23T06:30:13.755Z,29.42
2023-02-23T06:32:19.360Z,35.04
2023-02-23T06:35:12.873Z,45.66
2023-02-23T06:37:52.366Z,50.12
2023-02-23T06:40:17.787Z,67.06
2023-02-23T06:42:29.337Z,82.84
2023-02-23T06:44:26.761Z,100.08
2023-02-23T06:47:12.434Z,113.2
2023-02-23T06:49:44.124Z,127.64
2023-02-23T06:52:01.855Z,126.92
2023-02-23T06:54:05.308Z,152.6
2023-02-23T06:56:57.212Z,135.8
2023-02-23T06:59:34.620Z,147.8
2023-02-23T07:01:58.278Z,138.6
2023-02-23T07:04:08.408Z,163.68
2023-02-23T07:07:06.010Z,186
2023-02-23T07:09:49.850Z,207.8
2023-02-23T07:12:19.645Z,194.6
2023-02-23T07:14:35.663Z,215.7
2023-02-23T07:16:37.552Z,213.5
2023-02-23T07:19:27.678Z,226.2
2023-02-23T07:22:03.840Z,290.9
2023-02-23T07:24:25.886Z,279.1
2023-02-23T07:26:33.883Z,305.6
2023-02-23T07:29:30.337Z,353.9
2023-02-23T07:32:12.705Z,352.9
2023-02-23T07:34:40.719Z,337.9
2023-02-23T07:36:54.675Z,318
2023-02-23T07:38:54.749Z,315.1
2023-02-23T07:41:43.044Z,433.7
2023-02-23T07:44:17.176Z,455.3
2023-02-23T07:46:37.484Z,611.2
2023-02-23T07:48:43.605Z,564
2023-02-23T07:51:37.626Z,561.9
2023-02-23T07:54:18.073Z,581.2
2023-02-23T07:56:44.477Z,702.4
2023-02-23T07:58:56.789Z,645.6
2023-02-23T08:00:55.310Z,654.5
2023-02-23T08:03:41.947Z,721.6
2023-02-23T08:05:55.511Z,610
2023-02-23T08:07:54.929Z,686
2023-02-23T08:10:42.506Z,658.5
2023-02-23T08:13:16.276Z,595.5
2023-02-23T08:15:36.162Z,596.1
2023-02-23T08:17:41.304Z,564
2023-02-23T08:20:35.163Z,537.1
2023-02-23T08:23:15.026Z,477.6
2023-02-23T08:25:40.755Z,515.2
2023-02-23T08:27:52.631Z,554.8
2023-02-23T08:29:50.443Z,576.9
2023-02-23T08:32:38.410Z,644.3
2023-02-23T08:35:08.305Z,680.9
2023-02-23T08:37:26.215Z,512.9
2023-02-23T08:39:30.006Z,480.3
2023-02-23T08:42:21.671Z,358.4
2023-02-23T08:44:59.764Z,266.8
2023-02-23T08:47:23.625Z,251.2
2023-02-23T08:49:33.460Z,294.9
2023-02-23T08:52:31.696Z,498
2023-02-23T08:55:15.938Z,818.5
2023-02-23T08:57:46.013Z,893.7
2023-02-23T09:00:01.982Z,1039.3
2023-02-23T09:02:04.069Z,1025.6
2023-02-23T09:04:54.366Z,817.6
2023-02-23T09:07:30.552Z,945.6
2023-02-23T09:09:52.854Z,829.1
2023-02-23T09:12:01.018Z,799.6
2023-02-23T09:14:57.349Z,823.3
2023-02-23T09:17:39.795Z,771.2
2023-02-23T09:22:22.384Z,773.4
2023-02-23T09:24:22.678Z,835.5
2023-02-23T09:27:11.191Z,876.4
2023-02-23T09:29:45.640Z,611.3
2023-02-23T09:32:06.123Z,790.7
2023-02-23T09:34:12.058Z,726.7
2023-02-23T09:37:06.665Z,611.8
2023-02-23T09:39:47.074Z,614.2
2023-02-23T09:42:13.613Z,664.9
2023-02-23T09:44:26.115Z,876.1
2023-02-23T09:46:24.459Z,871
2023-02-23T09:49:11.211Z,974.7
2023-02-23T09:51:43.840Z,1156.4
2023-02-23T09:54:02.419Z,1259.2
2023-02-23T09:56:07.061Z,1532.8
2023-02-23T09:58:59.840Z,1571.8
2023-02-23T10:01:38.569Z,1487.3
2023-02-23T10:04:03.172Z,1440.6
2023-02-23T10:06:13.989Z,1617.9
2023-02-23T10:08:10.766Z,1596.1
2023-02-23T10:10:55.984Z,1813
2023-02-23T10:13:27.198Z,1931
2023-02-23T10:15:44.199Z,1951
2023-02-23T10:17:47.038Z,1998
2023-02-23T10:20:38.318Z,2081
2023-02-23T10:23:15.607Z,1907
2023-02-23T10:25:38.171Z,1923
2023-02-23T10:27:47.340Z,1659
2023-02-23T10:30:44.710Z,1472
2023-02-23T10:33:27.942Z,1834
2023-02-23T10:36:07.263Z,1972
2023-02-23T10:38:12.375Z,1840
2023-02-23T10:40:13.565Z,1731
2023-02-23T10:43:02.990Z,1464.3
2023-02-23T10:45:38.586Z,1306.8
2023-02-23T10:48:00.046Z,1410.5
2023-02-23T10:50:07.438Z,1327.3
2023-02-23T10:53:03.193Z,1173.7
2023-02-23T10:55:44.853Z,1193.6
2023-02-23T10:58:12.359Z,1530.2
2023-02-23T11:00:26.310Z,1904
2023-02-23T11:02:25.790Z,2092
2023-02-23T11:05:12.936Z,2055
2023-02-23T11:07:46.448Z,2213
2023-02-23T11:10:06.118Z,2202
2023-02-23T11:12:11.773Z,2095
2023-02-23T11:15:05.764Z,2123
2023-02-23T11:17:45.200Z,2148
2023-02-23T11:20:10.915Z,2082
2023-02-23T11:22:22.531Z,2075
2023-02-23T11:24:20.234Z,2056
2023-02-23T11:27:06.164Z,1971
2023-02-23T11:29:37.957Z,1916
2023-02-23T11:31:55.671Z,2019
2023-02-23T11:33:59.430Z,2124
2023-02-23T11:36:51.318Z,2389
2023-02-23T11:39:29.320Z,2657
2023-02-23T11:41:53.145Z,2810
2023-02-23T11:44:05.894Z,2750
2023-02-23T11:47:01.153Z,2493
2023-02-23T11:49:45.305Z,3735
2023-02-23T11:52:15.445Z,4175
2023-02-23T11:54:31.340Z,3959
2023-02-23T11:56:33.400Z,3970
2023-02-23T11:59:23.637Z,2748
2023-02-23T12:01:59.775Z,2082
2023-02-23T12:04:21.767Z,1933
2023-02-23T12:06:30.007Z,1631.3
2023-02-23T12:09:25.861Z,1383
2023-02-23T12:12:07.956Z,1656
2023-02-23T12:14:36.260Z,1975
2023-02-23T12:16:50.618Z,1941
2023-02-23T12:18:50.629Z,1865
2023-02-23T12:21:39.128Z,1495
2023-02-23T12:24:13.494Z,1111
2023-02-23T12:26:33.638Z,977.2
2023-02-23T12:28:40.017Z,901.1
2023-02-23T12:31:34.541Z,899.8
2023-02-23T12:34:14.881Z,1029.1
2023-02-23T12:36:41.189Z,1292.8
2023-02-23T12:38:53.582Z,1529.6
2023-02-23T12:40:52.034Z,1474.5
2023-02-23T12:43:38.370Z,1435.5
2023-02-23T12:46:10.974Z,1384.9
2023-02-23T12:48:29.452Z,1542.4
2023-02-23T12:50:33.869Z,1499.5
2023-02-23T12:53:26.552Z,1466.2
2023-02-23T12:56:05.237Z,1520.6
2023-02-23T12:58:29.785Z,1360.6
2023-02-23T13:00:40.018Z,1366.4
2023-02-23T13:02:36.606Z,1381.7
2023-02-23T13:05:21.243Z,1047.6
2023-02-23T13:07:52.787Z,947.5
2023-02-23T13:10:08.711Z,1114.2
2023-02-23T13:12:11.416Z,1340.1
2023-02-23T13:15:02.196Z,1436.1
2023-02-23T13:17:39.424Z,1313.9
2023-02-23T13:20:02.044Z,1247.3
2023-02-23T13:22:10.677Z,1161.2
2023-02-23T13:25:07.844Z,1052.4
2023-02-23T13:27:50.845Z,946.2
2023-02-23T13:30:19.813Z,816.9
2023-02-23T13:32:34.743Z,711.3
2023-02-23T13:34:35.821Z,535
2023-02-23T13:37:24.956Z,450.4
2023-02-23T13:39:59.983Z,524
2023-02-23T13:42:21.050Z,614.4
2023-02-23T13:44:28.091Z,854
2023-02-23T13:47:23.303Z,1406
2023-02-23T13:50:05.033Z,1700
2023-02-23T13:52:31.479Z,1782
2023-02-23T13:56:43.805Z,1745
2023-02-23T13:59:31.224Z,1716
2023-02-23T14:02:04.556Z,1710
2023-02-23T14:04:23.709Z,1753
2023-02-23T14:06:29.110Z,1859
2023-02-23T14:09:22.747Z,1797
2023-02-23T14:12:02.180Z,1740
2023-02-23T14:14:27.676Z,1612.8
2023-02-23T14:16:39.170Z,1565.4
2023-02-23T14:18:36.484Z,1556.4
2023-02-23T14:21:22.191Z,1541.7
2023-02-23T14:23:53.692Z,1407.3
2023-02-23T14:26:11.270Z,1316.4
2023-02-23T14:28:14.941Z,1256.6
2023-02-23T14:31:09.239Z,1229.1
2023-02-23T14:33:44.636Z,1793
2023-02-23T14:36:08.221Z,2033
2023-02-23T14:38:17.907Z,2049
2023-02-23T14:41:15.621Z,2194
2023-02-23T14:43:58.865Z,1697
2023-02-23T14:46:28.654Z,1621.1
2023-02-23T14:48:44.282Z,1385.6
2023-02-23T14:50:45.915Z,1262.7
2023-02-23T14:53:35.882Z,1236.4
2023-02-23T14:56:11.705Z,1280
2023-02-23T14:58:33.544Z,1352.9
2023-02-23T15:00:41.504Z,1415
2023-02-23T15:03:37.528Z,1410.5
2023-02-23T15:06:19.513Z,1354.8
2023-02-23T15:08:47.354Z,1286
2023-02-23T15:11:01.380Z,1202.8
2023-02-23T15:13:01.342Z,1121.9
2023-02-23T15:15:49.412Z,1045.1
2023-02-23T15:18:23.611Z,979.8
2023-02-23T15:20:43.852Z,872
2023-02-23T15:22:49.883Z,827.5
2023-02-23T15:25:44.269Z,740.8
2023-02-23T15:28:24.626Z,608
2023-02-23T15:30:50.902Z,591.6
2023-02-23T15:33:03.200Z,603
2023-02-23T15:35:00.991Z,605.1
2023-02-23T15:37:47.820Z,508.1
2023-02-23T15:40:19.560Z,496.9
2023-02-23T15:42:37.982Z,474.2
2023-02-23T15:44:44.613Z,450.7
2023-02-23T15:47:34.817Z,436.1
2023-02-23T15:50:14.183Z,377.6
2023-02-23T15:52:37.997Z,295.2
2023-02-23T15:54:48.381Z,262
2023-02-23T15:56:44.870Z,258.7
2023-02-23T15:59:29.905Z,230.6
2023-02-23T16:02:00.385Z,205.1
2023-02-23T16:04:16.991Z,180
2023-02-23T16:06:19.642Z,155.44
2023-02-23T16:09:10.469Z,138.2
2023-02-23T16:11:47.127Z,115.56
2023-02-23T16:14:10.023Z,106.6
2023-02-23T16:16:19.388Z,103.72
2023-02-23T16:19:15.736Z,89.24
2023-02-23T16:21:58.818Z,79.62
2023-02-23T16:24:27.751Z,72.26
2023-02-23T16:26:42.153Z,73.44
2023-02-23T16:28:43.151Z,67.74
2023-02-23T16:31:32.371Z,69.42
2023-02-23T16:34:07.295Z,73.06
2023-02-23T16:36:28.254Z,77.72
2023-02-23T16:38:35.450Z,68.06
2023-02-23T16:41:30.672Z,52.5
2023-02-23T16:44:11.801Z,44.78
2023-02-23T16:46:39.078Z,37.28
2023-02-23T16:48:52.372Z,37.65
2023-02-23T16:50:51.495Z,30.71
2023-02-23T16:53:38.994Z,24.34
2023-02-23T16:56:12.362Z,20.68
2023-02-23T16:58:31.565Z,16.95
2023-02-23T17:00:36.951Z,14.55
2023-02-23T17:03:31.349Z,10.61
2023-02-23T17:06:10.013Z,7.58
2023-02-23T17:08:36.689Z,5.71
2023-02-23T17:10:46.864Z,4.47
2023-02-23T17:12:44.321Z,3.25
2023-02-23T17:15:29.985Z,2.06
2023-02-23T17:18:01.180Z,1.44
2023-02-23T17:20:18.763Z,0.93
2023-02-23T17:22:22.283Z,0.65
2023-02-23T17:25:14.184Z,0.41
2023-02-23T17:27:51.933Z,0.29
2023-02-23T17:30:15.584Z,0.21
2023-02-23T17:32:25.508Z,0.16
2023-02-23T17:35:23.470Z,0.12
2023-02-23T17:38:07.329Z,0.11
2023-02-23T17:40:37.113Z,0.1
2023-02-23T17:44:54.943Z,0.11
2023-02-23T17:47:45.208Z,0.1
2023-02-23T17:50:21.197Z,0.09
2023-02-23T17:52:43.147Z,0.1
2023-02-23T17:54:51.047Z,0.07
2023-02-23T17:57:47.224Z,0.08
2023-02-23T18:00:29.394Z,0.07
2023-02-23T18:02:57.574Z,0.06
2023-02-23T18:05:11.642Z,0.08
2023-02-23T18:07:12.069Z,0.07
2023-02-23T18:12:33.837Z,0.06
2023-02-23T18:14:54.241Z,0.07
2023-02-23T18:19:54.898Z,0.06
2023-02-23T18:27:14.259Z,0.07
2023-02-23T18:29:12.712Z,0.08
2023-02-23T18:31:59.545Z,0.09
2023-02-23T18:34:12.873Z,0.07
2023-02-23T18:36:12.263Z,0.06
2023-02-23T18:43:53.588Z,0.07
2023-02-23T18:45:59.055Z,0.06
2023-02-23T18:48:52.913Z,0.05
2023-02-23T19:10:37.759Z,0.06
2023-02-23T19:13:15.916Z,0.05
2023-02-23T19:17:49.664Z,0.04
2023-02-23T19:20:47.879Z,0.05
2023-02-23T19:45:55.652Z,0.06
2023-02-23T19:48:23.946Z,0.05
2023-02-23T20:20:00.076Z,0.06
2023-02-23T20:34:30.419Z,0.07
2023-02-23T20:39:11.865Z,0.06
2023-02-23T20:46:02.242Z,0.05
2023-02-23T21:04:12.402Z,0.04
2023-02-23T21:06:27.677Z,0.05
2023-02-23T21:28:39.092Z,0.04
2023-02-23T21:52:32.401Z,0.05
2023-02-23T21:57:49.944Z,0.07
2023-02-23T22:05:03.449Z,0.04
2023-02-23T22:10:05.257Z,0.03
2023-02-23T22:15:13.233Z,0.04
2023-02-23T22:30:11.003Z,0.05
2023-02-23T22:32:33.423Z,0.04
2023-02-23T22:59:46.060Z,0.05
2023-02-23T23:04:52.837Z,0.04
2023-02-23T23:26:41.625Z,0.05
2023-02-23T23:28:52.360Z,0.04
2023-02-23T23:38:21.493Z,0.03
